sensor_id;sensor_type;location;lat;lon;timestamp;temperature;humidity
18147;DHT22;9199;48.832;9.182;2023-07-31T00:00:36;16.50;99.90
18147;DHT22;9199;48.832;9.182;2023-07-31T00:03:03;16.50;99.90
18147;DHT22;9199;48.832;9.182;2023-07-31T00:05:30;16.50;99.90
18147;DHT22;9199;48.832;9.182;2023-07-31T00:07:57;16.50;99.90
18147;DHT22;9199;48.832;9.182;2023-07-31T00:10:25;16.50;99.90
18147;DHT22;9199;48.832;9.182;2023-07-31T00:12:51;16.50;99.90
18147;DHT22;9199;48.832;9.182;2023-07-31T00:15:18;16.40;99.90
18147;DHT22;9199;48.832;9.182;2023-07-31T00:17:45;16.40;99.90
18147;DHT22;9199;48.832;9.182;2023-07-31T00:20:12;16.40;99.90
18147;DHT22;9199;48.832;9.182;2023-07-31T00:22:38;16.30;99.90
18147;DHT22;9199;48.832;9.182;2023-07-31T00:25:05;16.30;99.90
18147;DHT22;9199;48.832;9.182;2023-07-31T00:27:34;16.20;99.90
18147;DHT22;9199;48.832;9.182;2023-07-31T00:30:00;16.20;99.90
18147;DHT22;9199;48.832;9.182;2023-07-31T00:32:27;16.10;99.90
18147;DHT22;9199;48.832;9.182;2023-07-31T00:34:54;16.10;99.90
18147;DHT22;9199;48.832;9.182;2023-07-31T00:37:20;16.10;99.90
18147;DHT22;9199;48.832;9.182;2023-07-31T00:39:47;16.10;99.90
18147;DHT22;9199;48.832;9.182;2023-07-31T00:42:14;16.00;99.90
18147;DHT22;9199;48.832;9.182;2023-07-31T00:44:42;16.00;99.90
18147;DHT22;9199;48.832;9.182;2023-07-31T00:47:09;16.00;99.90
18147;DHT22;9199;48.832;9.182;2023-07-31T00:49:35;15.90;99.90
18147;DHT22;9199;48.832;9.182;2023-07-31T00:52:03;15.90;99.90
18147;DHT22;9199;48.832;9.182;2023-07-31T00:54:30;15.90;99.90
18147;DHT22;9199;48.832;9.182;2023-07-31T00:56:56;15.90;99.90
18147;DHT22;9199;48.832;9.182;2023-07-31T00:59:24;15.90;99.90
18147;DHT22;9199;48.832;9.182;2023-07-31T01:01:52;15.80;99.90
18147;DHT22;9199;48.832;9.182;2023-07-31T01:04:18;15.80;99.90
18147;DHT22;9199;48.832;9.182;2023-07-31T01:06:51;15.70;99.90
18147;DHT22;9199;48.832;9.182;2023-07-31T01:09:29;15.70;99.90
18147;DHT22;9199;48.832;9.182;2023-07-31T01:12:01;15.70;99.90
18147;DHT22;9199;48.832;9.182;2023-07-31T01:14:29;15.70;99.90
18147;DHT22;9199;48.832;9.182;2023-07-31T01:16:57;15.70;99.90
18147;DHT22;9199;48.832;9.182;2023-07-31T01:19:25;15.80;99.90
18147;DHT22;9199;48.832;9.182;2023-07-31T01:22:16;15.70;99.90
18147;DHT22;9199;48.832;9.182;2023-07-31T01:24:55;15.70;99.90
18147;DHT22;9199;48.832;9.182;2023-07-31T01:27:30;15.60;99.90
18147;DHT22;9199;48.832;9.182;2023-07-31T01:30:05;15.60;99.90
18147;DHT22;9199;48.832;9.182;2023-07-31T01:32:36;15.60;99.90
18147;DHT22;9199;48.832;9.182;2023-07-31T01:35:06;15.60;99.90
18147;DHT22;9199;48.832;9.182;2023-07-31T01:37:33;15.60;99.90
18147;DHT22;9199;48.832;9.182;2023-07-31T01:40:00;15.60;99.90
18147;DHT22;9199;48.832;9.182;2023-07-31T01:42:28;15.70;99.90
18147;DHT22;9199;48.832;9.182;2023-07-31T01:44:54;15.70;99.90
18147;DHT22;9199;48.832;9.182;2023-07-31T01:47:21;15.80;99.90
18147;DHT22;9199;48.832;9.182;2023-07-31T01:49:49;15.80;99.90
18147;DHT22;9199;48.832;9.182;2023-07-31T01:52:15;15.80;99.90
18147;DHT22;9199;48.832;9.182;2023-07-31T01:54:42;15.90;99.90
18147;DHT22;9199;48.832;9.182;2023-07-31T01:57:09;15.90;99.90
18147;DHT22;9199;48.832;9.182;2023-07-31T01:59:37;16.00;99.90
18147;DHT22;9199;48.832;9.182;2023-07-31T02:02:04;16.00;99.90
18147;DHT22;9199;48.832;9.182;2023-07-31T02:04:31;15.90;99.90
18147;DHT22;9199;48.832;9.182;2023-07-31T02:06:57;15.90;99.90
18147;DHT22;9199;48.832;9.182;2023-07-31T02:09:24;15.90;99.90
18147;DHT22;9199;48.832;9.182;2023-07-31T02:11:51;15.90;99.90
18147;DHT22;9199;48.832;9.182;2023-07-31T02:14:17;15.80;99.90
18147;DHT22;9199;48.832;9.182;2023-07-31T02:16:45;15.80;99.90
18147;DHT22;9199;48.832;9.182;2023-07-31T02:19:12;15.80;99.90
18147;DHT22;9199;48.832;9.182;2023-07-31T02:21:39;15.80;99.90
18147;DHT22;9199;48.832;9.182;2023-07-31T02:24:05;15.80;99.90
18147;DHT22;9199;48.832;9.182;2023-07-31T02:26:32;15.80;99.90
18147;DHT22;9199;48.832;9.182;2023-07-31T02:28:59;15.80;99.90
18147;DHT22;9199;48.832;9.182;2023-07-31T02:31:26;15.80;99.90
18147;DHT22;9199;48.832;9.182;2023-07-31T02:33:54;15.80;99.90
18147;DHT22;9199;48.832;9.182;2023-07-31T02:36:20;15.80;99.90
18147;DHT22;9199;48.832;9.182;2023-07-31T02:38:47;15.80;99.90
18147;DHT22;9199;48.832;9.182;2023-07-31T02:41:14;15.90;99.90
18147;DHT22;9199;48.832;9.182;2023-07-31T02:43:40;15.80;99.90
18147;DHT22;9199;48.832;9.182;2023-07-31T02:46:07;15.80;99.90
18147;DHT22;9199;48.832;9.182;2023-07-31T02:48:34;15.80;99.90
18147;DHT22;9199;48.832;9.182;2023-07-31T02:51:02;15.80;99.90
18147;DHT22;9199;48.832;9.182;2023-07-31T02:53:29;15.70;99.90
18147;DHT22;9199;48.832;9.182;2023-07-31T02:55:56;15.80;99.90
18147;DHT22;9199;48.832;9.182;2023-07-31T02:58:22;15.80;99.90
18147;DHT22;9199;48.832;9.182;2023-07-31T03:00:49;15.80;99.90
18147;DHT22;9199;48.832;9.182;2023-07-31T03:03:16;15.80;99.90
18147;DHT22;9199;48.832;9.182;2023-07-31T03:05:43;15.70;99.90
18147;DHT22;9199;48.832;9.182;2023-07-31T03:08:11;15.70;99.90
18147;DHT22;9199;48.832;9.182;2023-07-31T03:10:37;15.70;99.90
18147;DHT22;9199;48.832;9.182;2023-07-31T03:13:04;15.70;99.90
18147;DHT22;9199;48.832;9.182;2023-07-31T03:15:31;15.70;99.90
18147;DHT22;9199;48.832;9.182;2023-07-31T03:17:58;15.70;99.90
18147;DHT22;9199;48.832;9.182;2023-07-31T03:20:24;15.60;99.90
18147;DHT22;9199;48.832;9.182;2023-07-31T03:22:51;15.60;99.90
18147;DHT22;9199;48.832;9.182;2023-07-31T03:25:19;15.60;99.90
18147;DHT22;9199;48.832;9.182;2023-07-31T03:27:46;15.60;99.90
18147;DHT22;9199;48.832;9.182;2023-07-31T03:30:12;15.60;99.90
18147;DHT22;9199;48.832;9.182;2023-07-31T03:32:39;15.60;99.90
18147;DHT22;9199;48.832;9.182;2023-07-31T03:35:06;15.60;99.90
18147;DHT22;9199;48.832;9.182;2023-07-31T03:37:33;15.60;99.90
18147;DHT22;9199;48.832;9.182;2023-07-31T03:39:59;15.60;99.90
18147;DHT22;9199;48.832;9.182;2023-07-31T03:42:27;15.60;99.90
18147;DHT22;9199;48.832;9.182;2023-07-31T03:44:54;15.60;99.90
18147;DHT22;9199;48.832;9.182;2023-07-31T03:47:21;15.60;99.90
18147;DHT22;9199;48.832;9.182;2023-07-31T03:49:47;15.60;99.90
18147;DHT22;9199;48.832;9.182;2023-07-31T03:52:14;15.60;99.90
18147;DHT22;9199;48.832;9.182;2023-07-31T03:54:41;15.70;99.90
18147;DHT22;9199;48.832;9.182;2023-07-31T03:57:09;15.70;99.90
18147;DHT22;9199;48.832;9.182;2023-07-31T03:59:38;15.60;99.90
18147;DHT22;9199;48.832;9.182;2023-07-31T04:02:05;15.70;99.90
18147;DHT22;9199;48.832;9.182;2023-07-31T04:04:31;15.60;99.90
18147;DHT22;9199;48.832;9.182;2023-07-31T04:06:58;15.70;99.90
18147;DHT22;9199;48.832;9.182;2023-07-31T04:09:25;15.80;99.90
18147;DHT22;9199;48.832;9.182;2023-07-31T04:11:51;15.90;99.90
18147;DHT22;9199;48.832;9.182;2023-07-31T04:14:18;15.90;99.90
18147;DHT22;9199;48.832;9.182;2023-07-31T04:16:46;16.00;99.90
18147;DHT22;9199;48.832;9.182;2023-07-31T04:19:13;16.10;99.90
18147;DHT22;9199;48.832;9.182;2023-07-31T04:21:42;16.20;99.90
18147;DHT22;9199;48.832;9.182;2023-07-31T04:24:08;16.20;99.90
18147;DHT22;9199;48.832;9.182;2023-07-31T04:26:35;16.30;99.90
18147;DHT22;9199;48.832;9.182;2023-07-31T04:29:02;16.40;99.90
18147;DHT22;9199;48.832;9.182;2023-07-31T04:31:28;16.40;99.90
18147;DHT22;9199;48.832;9.182;2023-07-31T04:33:56;16.50;99.90
18147;DHT22;9199;48.832;9.182;2023-07-31T04:36:23;16.50;99.90
18147;DHT22;9199;48.832;9.182;2023-07-31T04:38:50;16.60;99.90
18147;DHT22;9199;48.832;9.182;2023-07-31T04:41:17;16.60;99.90
18147;DHT22;9199;48.832;9.182;2023-07-31T04:43:43;16.70;99.90
18147;DHT22;9199;48.832;9.182;2023-07-31T04:46:10;16.80;99.90
18147;DHT22;9199;48.832;9.182;2023-07-31T04:48:37;16.90;99.90
18147;DHT22;9199;48.832;9.182;2023-07-31T04:51:05;16.90;99.90
18147;DHT22;9199;48.832;9.182;2023-07-31T04:53:31;17.00;99.90
18147;DHT22;9199;48.832;9.182;2023-07-31T04:55:58;17.00;99.90
18147;DHT22;9199;48.832;9.182;2023-07-31T04:58:25;17.00;99.90
18147;DHT22;9199;48.832;9.182;2023-07-31T05:00:51;17.00;99.90
18147;DHT22;9199;48.832;9.182;2023-07-31T05:03:18;17.10;99.90
18147;DHT22;9199;48.832;9.182;2023-07-31T05:05:45;17.10;99.90
18147;DHT22;9199;48.832;9.182;2023-07-31T05:08:13;17.20;99.90
18147;DHT22;9199;48.832;9.182;2023-07-31T05:10:40;17.20;99.90
18147;DHT22;9199;48.832;9.182;2023-07-31T05:13:06;17.20;99.90
18147;DHT22;9199;48.832;9.182;2023-07-31T05:15:33;17.20;99.90
18147;DHT22;9199;48.832;9.182;2023-07-31T05:18:00;17.20;99.90
18147;DHT22;9199;48.832;9.182;2023-07-31T05:20:26;17.20;99.90
18147;DHT22;9199;48.832;9.182;2023-07-31T05:22:54;17.20;99.90
18147;DHT22;9199;48.832;9.182;2023-07-31T05:25:22;17.20;99.90
18147;DHT22;9199;48.832;9.182;2023-07-31T05:27:48;17.30;99.90
18147;DHT22;9199;48.832;9.182;2023-07-31T05:30:15;17.30;99.90
18147;DHT22;9199;48.832;9.182;2023-07-31T05:32:42;17.30;99.90
18147;DHT22;9199;48.832;9.182;2023-07-31T05:35:08;17.30;99.90
18147;DHT22;9199;48.832;9.182;2023-07-31T05:37:35;17.40;99.90
18147;DHT22;9199;48.832;9.182;2023-07-31T05:40:02;17.40;99.90
18147;DHT22;9199;48.832;9.182;2023-07-31T05:42:30;17.60;99.90
18147;DHT22;9199;48.832;9.182;2023-07-31T05:44:57;17.80;99.90
18147;DHT22;9199;48.832;9.182;2023-07-31T05:47:24;17.80;99.90
18147;DHT22;9199;48.832;9.182;2023-07-31T05:49:50;17.90;99.90
18147;DHT22;9199;48.832;9.182;2023-07-31T05:52:18;17.90;99.90
18147;DHT22;9199;48.832;9.182;2023-07-31T05:54:45;18.10;99.90
18147;DHT22;9199;48.832;9.182;2023-07-31T05:57:12;18.10;99.90
18147;DHT22;9199;48.832;9.182;2023-07-31T05:59:40;18.20;99.90
18147;DHT22;9199;48.832;9.182;2023-07-31T06:02:07;18.20;99.90
18147;DHT22;9199;48.832;9.182;2023-07-31T06:04:33;18.30;99.90
18147;DHT22;9199;48.832;9.182;2023-07-31T06:07:00;18.30;99.90
18147;DHT22;9199;48.832;9.182;2023-07-31T06:09:27;18.30;99.90
18147;DHT22;9199;48.832;9.182;2023-07-31T06:11:53;18.40;99.90
18147;DHT22;9199;48.832;9.182;2023-07-31T06:14:20;18.50;99.90
18147;DHT22;9199;48.832;9.182;2023-07-31T06:16:48;18.50;99.90
18147;DHT22;9199;48.832;9.182;2023-07-31T06:19:15;18.60;99.90
18147;DHT22;9199;48.832;9.182;2023-07-31T06:21:42;18.80;99.90
18147;DHT22;9199;48.832;9.182;2023-07-31T06:24:09;19.00;99.90
18147;DHT22;9199;48.832;9.182;2023-07-31T06:26:37;19.10;99.90
18147;DHT22;9199;48.832;9.182;2023-07-31T06:29:04;19.20;99.90
18147;DHT22;9199;48.832;9.182;2023-07-31T06:31:31;19.40;99.90
18147;DHT22;9199;48.832;9.182;2023-07-31T06:33:59;19.70;99.90
18147;DHT22;9199;48.832;9.182;2023-07-31T06:36:25;20.20;99.90
18147;DHT22;9199;48.832;9.182;2023-07-31T06:38:52;20.40;99.90
18147;DHT22;9199;48.832;9.182;2023-07-31T06:41:19;20.50;99.90
18147;DHT22;9199;48.832;9.182;2023-07-31T06:43:45;20.50;99.90
18147;DHT22;9199;48.832;9.182;2023-07-31T06:46:12;20.50;99.90
18147;DHT22;9199;48.832;9.182;2023-07-31T06:48:39;20.30;99.90
18147;DHT22;9199;48.832;9.182;2023-07-31T06:51:07;20.40;99.90
18147;DHT22;9199;48.832;9.182;2023-07-31T06:53:33;20.60;99.90
18147;DHT22;9199;48.832;9.182;2023-07-31T06:56:00;20.80;99.90
18147;DHT22;9199;48.832;9.182;2023-07-31T06:58:27;21.00;99.90
18147;DHT22;9199;48.832;9.182;2023-07-31T07:00:53;21.20;99.90
18147;DHT22;9199;48.832;9.182;2023-07-31T07:03:20;21.40;99.90
18147;DHT22;9199;48.832;9.182;2023-07-31T07:05:47;21.40;99.90
18147;DHT22;9199;48.832;9.182;2023-07-31T07:08:15;21.30;99.90
18147;DHT22;9199;48.832;9.182;2023-07-31T07:10:42;21.30;99.90
18147;DHT22;9199;48.832;9.182;2023-07-31T07:13:09;21.20;99.90
18147;DHT22;9199;48.832;9.182;2023-07-31T07:15:35;21.10;99.90
18147;DHT22;9199;48.832;9.182;2023-07-31T07:18:02;21.10;99.70
18147;DHT22;9199;48.832;9.182;2023-07-31T07:20:29;21.10;99.80
18147;DHT22;9199;48.832;9.182;2023-07-31T07:22:56;21.20;99.60
18147;DHT22;9199;48.832;9.182;2023-07-31T07:25:24;21.30;99.30
18147;DHT22;9199;48.832;9.182;2023-07-31T07:27:51;21.30;99.10
18147;DHT22;9199;48.832;9.182;2023-07-31T07:30:18;21.20;99.40
18147;DHT22;9199;48.832;9.182;2023-07-31T07:32:45;21.20;99.60
18147;DHT22;9199;48.832;9.182;2023-07-31T07:35:12;21.40;99.40
18147;DHT22;9199;48.832;9.182;2023-07-31T07:37:38;21.40;99.20
18147;DHT22;9199;48.832;9.182;2023-07-31T07:40:06;21.30;99.20
18147;DHT22;9199;48.832;9.182;2023-07-31T07:42:35;21.40;99.10
18147;DHT22;9199;48.832;9.182;2023-07-31T07:45:01;21.40;98.80
18147;DHT22;9199;48.832;9.182;2023-07-31T07:47:28;21.20;99.30
18147;DHT22;9199;48.832;9.182;2023-07-31T07:49:55;21.20;99.10
18147;DHT22;9199;48.832;9.182;2023-07-31T07:52:21;21.30;99.10
18147;DHT22;9199;48.832;9.182;2023-07-31T07:54:48;21.50;99.40
18147;DHT22;9199;48.832;9.182;2023-07-31T07:57:15;21.90;99.10
18147;DHT22;9199;48.832;9.182;2023-07-31T07:59:43;22.50;97.50
18147;DHT22;9199;48.832;9.182;2023-07-31T08:02:10;22.60;97.00
18147;DHT22;9199;48.832;9.182;2023-07-31T08:04:37;22.80;96.70
18147;DHT22;9199;48.832;9.182;2023-07-31T08:07:04;23.00;96.00
18147;DHT22;9199;48.832;9.182;2023-07-31T08:09:30;23.30;95.50
18147;DHT22;9199;48.832;9.182;2023-07-31T08:11:57;23.30;95.30
18147;DHT22;9199;48.832;9.182;2023-07-31T08:14:27;23.50;95.30
18147;DHT22;9199;48.832;9.182;2023-07-31T08:16:55;23.70;94.80
18147;DHT22;9199;48.832;9.182;2023-07-31T08:19:22;24.00;94.20
18147;DHT22;9199;48.832;9.182;2023-07-31T08:21:49;24.00;93.70
18147;DHT22;9199;48.832;9.182;2023-07-31T08:24:16;24.20;93.40
18147;DHT22;9199;48.832;9.182;2023-07-31T08:26:42;24.40;93.30
18147;DHT22;9199;48.832;9.182;2023-07-31T08:29:09;24.50;92.10
18147;DHT22;9199;48.832;9.182;2023-07-31T08:31:36;24.40;92.60
18147;DHT22;9199;48.832;9.182;2023-07-31T08:34:04;24.20;92.80
18147;DHT22;9199;48.832;9.182;2023-07-31T08:36:29;24.70;92.30
18147;DHT22;9199;48.832;9.182;2023-07-31T08:38:56;25.30;90.70
18147;DHT22;9199;48.832;9.182;2023-07-31T08:41:23;25.50;90.50
18147;DHT22;9199;48.832;9.182;2023-07-31T08:43:50;25.40;90.50
18147;DHT22;9199;48.832;9.182;2023-07-31T08:46:19;25.00;90.30
18147;DHT22;9199;48.832;9.182;2023-07-31T08:48:46;24.90;90.70
18147;DHT22;9199;48.832;9.182;2023-07-31T08:51:15;24.80;90.00
18147;DHT22;9199;48.832;9.182;2023-07-31T08:53:42;24.70;90.30
18147;DHT22;9199;48.832;9.182;2023-07-31T08:56:10;24.20;90.50
18147;DHT22;9199;48.832;9.182;2023-07-31T08:58:38;24.10;90.70
18147;DHT22;9199;48.832;9.182;2023-07-31T09:01:06;24.10;91.00
18147;DHT22;9199;48.832;9.182;2023-07-31T09:03:34;23.90;90.70
18147;DHT22;9199;48.832;9.182;2023-07-31T09:06:02;24.00;90.80
18147;DHT22;9199;48.832;9.182;2023-07-31T09:08:32;24.10;91.10
18147;DHT22;9199;48.832;9.182;2023-07-31T09:11:00;24.80;91.00
18147;DHT22;9199;48.832;9.182;2023-07-31T09:13:29;25.30;88.90
18147;DHT22;9199;48.832;9.182;2023-07-31T09:15:56;25.50;88.80
18147;DHT22;9199;48.832;9.182;2023-07-31T09:18:23;25.50;88.00
18147;DHT22;9199;48.832;9.182;2023-07-31T09:21:01;26.00;88.10
18147;DHT22;9199;48.832;9.182;2023-07-31T09:23:41;26.90;84.60
18147;DHT22;9199;48.832;9.182;2023-07-31T09:26:08;26.90;82.90
18147;DHT22;9199;48.832;9.182;2023-07-31T09:28:36;26.40;84.70
18147;DHT22;9199;48.832;9.182;2023-07-31T09:31:02;26.40;84.70
18147;DHT22;9199;48.832;9.182;2023-07-31T09:33:29;25.80;84.40
18147;DHT22;9199;48.832;9.182;2023-07-31T09:35:58;25.50;85.70
18147;DHT22;9199;48.832;9.182;2023-07-31T09:38:25;25.20;87.10
18147;DHT22;9199;48.832;9.182;2023-07-31T09:40:53;24.70;87.60
18147;DHT22;9199;48.832;9.182;2023-07-31T09:43:21;24.30;88.90
18147;DHT22;9199;48.832;9.182;2023-07-31T09:45:54;24.10;90.00
18147;DHT22;9199;48.832;9.182;2023-07-31T09:48:23;24.10;90.10
18147;DHT22;9199;48.832;9.182;2023-07-31T09:50:52;24.40;90.10
18147;DHT22;9199;48.832;9.182;2023-07-31T09:53:28;25.40;88.40
18147;DHT22;9199;48.832;9.182;2023-07-31T09:55:58;26.50;84.90
18147;DHT22;9199;48.832;9.182;2023-07-31T09:58:26;27.00;82.90
18147;DHT22;9199;48.832;9.182;2023-07-31T10:00:55;27.70;80.10
18147;DHT22;9199;48.832;9.182;2023-07-31T10:03:23;28.20;78.60
18147;DHT22;9199;48.832;9.182;2023-07-31T10:05:52;27.90;77.60
18147;DHT22;9199;48.832;9.182;2023-07-31T10:08:21;26.80;79.40
18147;DHT22;9199;48.832;9.182;2023-07-31T10:10:50;25.80;82.20
18147;DHT22;9199;48.832;9.182;2023-07-31T10:13:18;25.80;82.30
18147;DHT22;9199;48.832;9.182;2023-07-31T10:15:50;25.90;83.10
18147;DHT22;9199;48.832;9.182;2023-07-31T10:18:18;26.00;81.60
18147;DHT22;9199;48.832;9.182;2023-07-31T10:20:47;26.00;82.20
18147;DHT22;9199;48.832;9.182;2023-07-31T10:23:14;26.10;82.00
18147;DHT22;9199;48.832;9.182;2023-07-31T10:25:42;26.00;82.60
18147;DHT22;9199;48.832;9.182;2023-07-31T10:28:10;25.90;83.50
18147;DHT22;9199;48.832;9.182;2023-07-31T10:30:39;25.40;82.80
18147;DHT22;9199;48.832;9.182;2023-07-31T10:33:06;25.40;83.20
18147;DHT22;9199;48.832;9.182;2023-07-31T10:35:33;25.80;81.70
18147;DHT22;9199;48.832;9.182;2023-07-31T10:38:09;25.80;81.40
18147;DHT22;9199;48.832;9.182;2023-07-31T10:40:37;26.00;82.10
18147;DHT22;9199;48.832;9.182;2023-07-31T10:43:05;26.80;80.40
18147;DHT22;9199;48.832;9.182;2023-07-31T10:45:34;28.00;77.40
18147;DHT22;9199;48.832;9.182;2023-07-31T10:48:05;28.70;76.00
18147;DHT22;9199;48.832;9.182;2023-07-31T10:50:37;28.20;74.10
18147;DHT22;9199;48.832;9.182;2023-07-31T10:53:04;28.20;75.30
18147;DHT22;9199;48.832;9.182;2023-07-31T10:55:35;27.90;74.40
18147;DHT22;9199;48.832;9.182;2023-07-31T10:58:06;26.90;76.30
18147;DHT22;9199;48.832;9.182;2023-07-31T11:00:34;26.80;77.70
18147;DHT22;9199;48.832;9.182;2023-07-31T11:03:05;26.80;77.00
18147;DHT22;9199;48.832;9.182;2023-07-31T11:05:52;26.60;78.00
18147;DHT22;9199;48.832;9.182;2023-07-31T11:08:21;26.60;76.80
18147;DHT22;9199;48.832;9.182;2023-07-31T11:10:50;26.50;77.10
18147;DHT22;9199;48.832;9.182;2023-07-31T11:13:17;26.20;78.00
18147;DHT22;9199;48.832;9.182;2023-07-31T11:15:44;26.00;78.20
18147;DHT22;9199;48.832;9.182;2023-07-31T11:18:12;25.70;78.50
18147;DHT22;9199;48.832;9.182;2023-07-31T11:20:39;25.40;79.70
18147;DHT22;9199;48.832;9.182;2023-07-31T11:23:08;25.30;80.30
18147;DHT22;9199;48.832;9.182;2023-07-31T11:25:36;25.10;80.90
18147;DHT22;9199;48.832;9.182;2023-07-31T11:28:10;24.90;82.00
18147;DHT22;9199;48.832;9.182;2023-07-31T11:30:37;24.90;81.80
18147;DHT22;9199;48.832;9.182;2023-07-31T11:33:06;25.00;82.30
18147;DHT22;9199;48.832;9.182;2023-07-31T11:35:35;25.10;82.00
18147;DHT22;9199;48.832;9.182;2023-07-31T11:38:03;24.90;83.40
18147;DHT22;9199;48.832;9.182;2023-07-31T11:40:29;24.90;82.60
18147;DHT22;9199;48.832;9.182;2023-07-31T11:42:57;24.90;82.00
18147;DHT22;9199;48.832;9.182;2023-07-31T11:45:25;24.60;83.50
18147;DHT22;9199;48.832;9.182;2023-07-31T11:47:54;24.30;84.30
18147;DHT22;9199;48.832;9.182;2023-07-31T11:50:21;24.40;84.30
18147;DHT22;9199;48.832;9.182;2023-07-31T11:52:52;24.60;84.70
18147;DHT22;9199;48.832;9.182;2023-07-31T11:55:21;25.20;83.30
18147;DHT22;9199;48.832;9.182;2023-07-31T11:57:49;26.00;81.80
18147;DHT22;9199;48.832;9.182;2023-07-31T12:00:16;26.20;80.70
18147;DHT22;9199;48.832;9.182;2023-07-31T12:02:43;26.20;80.90
18147;DHT22;9199;48.832;9.182;2023-07-31T12:05:11;26.30;80.80
18147;DHT22;9199;48.832;9.182;2023-07-31T12:07:46;26.90;79.40
18147;DHT22;9199;48.832;9.182;2023-07-31T12:10:27;27.50;79.30
18147;DHT22;9199;48.832;9.182;2023-07-31T12:13:02;27.30;76.80
18147;DHT22;9199;48.832;9.182;2023-07-31T12:15:33;26.90;78.10
18147;DHT22;9199;48.832;9.182;2023-07-31T12:18:03;26.60;78.90
18147;DHT22;9199;48.832;9.182;2023-07-31T12:20:30;26.30;79.50
18147;DHT22;9199;48.832;9.182;2023-07-31T12:22:57;26.00;80.60
18147;DHT22;9199;48.832;9.182;2023-07-31T12:25:30;25.60;80.90
18147;DHT22;9199;48.832;9.182;2023-07-31T12:27:57;25.20;82.10
18147;DHT22;9199;48.832;9.182;2023-07-31T12:30:27;25.10;83.20
18147;DHT22;9199;48.832;9.182;2023-07-31T12:32:54;25.20;83.20
18147;DHT22;9199;48.832;9.182;2023-07-31T12:35:21;25.30;82.90
18147;DHT22;9199;48.832;9.182;2023-07-31T12:37:47;25.30;83.50
18147;DHT22;9199;48.832;9.182;2023-07-31T12:40:14;25.10;83.40
18147;DHT22;9199;48.832;9.182;2023-07-31T12:42:42;25.00;84.40
18147;DHT22;9199;48.832;9.182;2023-07-31T12:45:09;24.80;84.70
18147;DHT22;9199;48.832;9.182;2023-07-31T12:47:36;24.80;84.40
18147;DHT22;9199;48.832;9.182;2023-07-31T12:50:03;24.80;84.40
18147;DHT22;9199;48.832;9.182;2023-07-31T12:52:29;24.80;85.20
18147;DHT22;9199;48.832;9.182;2023-07-31T12:54:56;24.50;85.20
18147;DHT22;9199;48.832;9.182;2023-07-31T12:57:23;24.50;84.70
18147;DHT22;9199;48.832;9.182;2023-07-31T12:59:51;24.30;83.30
18147;DHT22;9199;48.832;9.182;2023-07-31T13:02:17;24.00;83.80
18147;DHT22;9199;48.832;9.182;2023-07-31T13:04:44;23.80;83.80
18147;DHT22;9199;48.832;9.182;2023-07-31T13:07:11;23.60;84.40
18147;DHT22;9199;48.832;9.182;2023-07-31T13:09:38;23.40;85.50
18147;DHT22;9199;48.832;9.182;2023-07-31T13:12:05;23.50;85.70
18147;DHT22;9199;48.832;9.182;2023-07-31T13:14:32;23.60;85.20
18147;DHT22;9199;48.832;9.182;2023-07-31T13:17:00;23.60;85.50
18147;DHT22;9199;48.832;9.182;2023-07-31T13:19:26;23.60;85.60
18147;DHT22;9199;48.832;9.182;2023-07-31T13:21:53;23.60;85.60
18147;DHT22;9199;48.832;9.182;2023-07-31T13:24:20;23.50;86.40
18147;DHT22;9199;48.832;9.182;2023-07-31T13:26:47;23.50;87.10
18147;DHT22;9199;48.832;9.182;2023-07-31T13:29:13;23.60;87.20
18147;DHT22;9199;48.832;9.182;2023-07-31T13:31:40;23.70;87.30
18147;DHT22;9199;48.832;9.182;2023-07-31T13:34:08;23.90;86.50
18147;DHT22;9199;48.832;9.182;2023-07-31T13:36:35;24.30;85.70
18147;DHT22;9199;48.832;9.182;2023-07-31T13:39:02;24.90;84.00
18147;DHT22;9199;48.832;9.182;2023-07-31T13:41:29;25.30;83.40
18147;DHT22;9199;48.832;9.182;2023-07-31T13:43:56;25.70;82.00
18147;DHT22;9199;48.832;9.182;2023-07-31T13:46:23;26.10;83.70
18147;DHT22;9199;48.832;9.182;2023-07-31T13:48:50;26.40;80.30
18147;DHT22;9199;48.832;9.182;2023-07-31T13:51:21;27.00;79.00
18147;DHT22;9199;48.832;9.182;2023-07-31T13:53:48;26.40;78.50
18147;DHT22;9199;48.832;9.182;2023-07-31T13:56:15;26.30;79.90
18147;DHT22;9199;48.832;9.182;2023-07-31T13:58:41;26.80;77.50
18147;DHT22;9199;48.832;9.182;2023-07-31T14:01:08;27.40;78.50
18147;DHT22;9199;48.832;9.182;2023-07-31T14:03:35;28.00;76.20
18147;DHT22;9199;48.832;9.182;2023-07-31T14:06:02;28.30;76.00
18147;DHT22;9199;48.832;9.182;2023-07-31T14:08:30;28.30;74.70
18147;DHT22;9199;48.832;9.182;2023-07-31T14:10:57;28.00;74.80
18147;DHT22;9199;48.832;9.182;2023-07-31T14:13:24;27.80;75.00
18147;DHT22;9199;48.832;9.182;2023-07-31T14:15:50;27.60;75.50
18147;DHT22;9199;48.832;9.182;2023-07-31T14:18:18;27.60;76.20
18147;DHT22;9199;48.832;9.182;2023-07-31T14:20:45;27.60;76.20
18147;DHT22;9199;48.832;9.182;2023-07-31T14:23:12;27.20;77.70
18147;DHT22;9199;48.832;9.182;2023-07-31T14:25:40;26.90;77.10
18147;DHT22;9199;48.832;9.182;2023-07-31T14:28:06;26.50;77.80
18147;DHT22;9199;48.832;9.182;2023-07-31T14:30:33;26.40;78.50
18147;DHT22;9199;48.832;9.182;2023-07-31T14:33:00;26.50;78.80
18147;DHT22;9199;48.832;9.182;2023-07-31T14:35:27;26.60;78.10
18147;DHT22;9199;48.832;9.182;2023-07-31T14:37:54;26.70;79.00
18147;DHT22;9199;48.832;9.182;2023-07-31T14:40:21;26.90;78.40
18147;DHT22;9199;48.832;9.182;2023-07-31T14:42:49;27.00;78.00
18147;DHT22;9199;48.832;9.182;2023-07-31T14:45:16;26.80;78.00
18147;DHT22;9199;48.832;9.182;2023-07-31T14:47:42;26.70;79.00
18147;DHT22;9199;48.832;9.182;2023-07-31T14:50:09;26.80;78.00
18147;DHT22;9199;48.832;9.182;2023-07-31T14:52:36;26.80;78.60
18147;DHT22;9199;48.832;9.182;2023-07-31T14:55:03;26.70;78.50
18147;DHT22;9199;48.832;9.182;2023-07-31T14:57:30;26.90;78.80
18147;DHT22;9199;48.832;9.182;2023-07-31T14:59:58;26.90;79.30
18147;DHT22;9199;48.832;9.182;2023-07-31T15:02:26;26.90;78.70
18147;DHT22;9199;48.832;9.182;2023-07-31T15:04:53;26.70;78.80
18147;DHT22;9199;48.832;9.182;2023-07-31T15:07:20;26.40;79.50
18147;DHT22;9199;48.832;9.182;2023-07-31T15:09:46;26.50;80.00
18147;DHT22;9199;48.832;9.182;2023-07-31T15:12:13;26.90;79.70
18147;DHT22;9199;48.832;9.182;2023-07-31T15:14:40;27.40;77.80
18147;DHT22;9199;48.832;9.182;2023-07-31T15:17:08;27.90;76.30
18147;DHT22;9199;48.832;9.182;2023-07-31T15:19:34;28.00;76.00
18147;DHT22;9199;48.832;9.182;2023-07-31T15:22:02;28.10;75.80
18147;DHT22;9199;48.832;9.182;2023-07-31T15:24:29;28.00;75.00
18147;DHT22;9199;48.832;9.182;2023-07-31T15:26:55;27.20;75.70
18147;DHT22;9199;48.832;9.182;2023-07-31T15:29:22;27.10;76.90
18147;DHT22;9199;48.832;9.182;2023-07-31T15:31:49;27.40;76.70
18147;DHT22;9199;48.832;9.182;2023-07-31T15:34:17;27.60;74.20
18147;DHT22;9199;48.832;9.182;2023-07-31T15:36:44;27.90;73.30
18147;DHT22;9199;48.832;9.182;2023-07-31T15:39:11;27.60;73.80
18147;DHT22;9199;48.832;9.182;2023-07-31T15:41:38;27.20;74.80
18147;DHT22;9199;48.832;9.182;2023-07-31T15:44:05;26.80;74.80
18147;DHT22;9199;48.832;9.182;2023-07-31T15:46:32;26.60;76.40